createdAt,value
2018-09-26T00:00:50.668Z,74.20
2018-09-26T00:01:50.656Z,74.90
2018-09-26T00:02:50.642Z,75.38
2018-09-26T00:03:50.629Z,76.10
2018-09-26T00:04:50.615Z,74.67
2018-09-26T00:05:50.601Z,74.77
2018-09-26T00:06:50.588Z,75.53
2018-09-26T00:07:50.578Z,77.81
2018-09-26T00:08:50.561Z,75.43
2018-09-26T00:09:50.548Z,73.72
2018-09-26T00:10:50.535Z,74.48
2018-09-26T00:11:50.522Z,74.87
2018-09-26T00:12:50.508Z,77.15
2018-09-26T00:13:50.495Z,75.53
2018-09-26T00:14:50.482Z,74.77
2018-09-26T00:15:50.469Z,76.10
2018-09-26T00:16:50.456Z,77.56
2018-09-26T00:17:50.442Z,75.47
2018-09-26T00:18:50.429Z,74.77
2018-09-26T00:19:50.415Z,74.71
2018-09-26T00:20:50.402Z,76.33
2018-09-26T00:21:50.391Z,75.67
2018-09-26T00:22:50.375Z,76.04
2018-09-26T00:23:50.363Z,75.19
2018-09-26T00:24:50.352Z,75.09
2018-09-26T00:25:50.337Z,75.47
2018-09-26T00:26:50.323Z,75.76
2018-09-26T00:27:50.310Z,73.57
2018-09-26T00:28:50.298Z,71.57
2018-09-26T00:29:50.283Z,71.57
2018-09-26T00:30:50.272Z,74.14
2018-09-26T00:31:50.255Z,74.20
2018-09-26T00:32:50.242Z,72.96
2018-09-26T00:33:50.230Z,74.10
2018-09-26T00:34:50.216Z,76.39
2018-09-26T00:35:50.281Z,74.87
2018-09-26T00:36:50.188Z,75.05
2018-09-26T00:37:50.177Z,73.82
2018-09-26T00:38:50.189Z,74.10
2018-09-26T00:39:50.152Z,73.25
2018-09-26T00:40:50.138Z,71.72
2018-09-26T00:41:50.123Z,71.25
2018-09-26T00:42:50.110Z,71.44
2018-09-26T00:43:50.099Z,71.53
2018-09-26T00:44:50.083Z,71.53
2018-09-26T00:45:50.069Z,71.82
2018-09-26T00:46:50.058Z,72.30
2018-09-26T00:47:50.042Z,72.77
2018-09-26T00:48:50.029Z,72.16
2018-09-26T00:49:50.016Z,71.53
2018-09-26T00:50:50.002Z,72.11
2018-09-26T00:51:49.988Z,71.91
2018-09-26T00:52:49.975Z,72.49
2018-09-26T00:53:49.962Z,73.53
2018-09-26T00:54:49.947Z,72.55
2018-09-26T00:55:49.936Z,72.30
2018-09-26T00:56:49.924Z,71.97
2018-09-26T00:57:49.909Z,71.59
2018-09-26T00:58:49.892Z,72.35
2018-09-26T00:59:49.879Z,72.96
2018-09-26T01:00:49.868Z,72.35
2018-09-26T01:01:49.853Z,72.16
2018-09-26T01:02:49.839Z,72.16
2018-09-26T01:03:49.826Z,71.88
2018-09-26T01:04:49.812Z,72.45
2018-09-26T01:05:49.799Z,73.02
2018-09-26T01:06:49.787Z,72.07
2018-09-26T01:07:49.771Z,71.88
2018-09-26T01:08:49.756Z,71.88
2018-09-26T01:09:49.743Z,72.16
2018-09-26T01:10:49.733Z,72.26
2018-09-26T01:11:49.717Z,72.26
2018-09-26T01:12:49.701Z,72.35
2018-09-26T01:13:49.688Z,72.74
2018-09-26T01:14:49.674Z,72.16
2018-09-26T01:15:49.662Z,72.26
2018-09-26T01:16:49.649Z,72.26
2018-09-26T01:17:49.634Z,72.55
2018-09-26T01:18:49.621Z,72.45
2018-09-26T01:19:49.609Z,72.64
2018-09-26T01:20:49.592Z,73.02
2018-09-26T01:21:49.578Z,73.49
2018-09-26T01:22:49.565Z,74.73
2018-09-26T01:23:49.551Z,73.97
2018-09-26T01:24:49.537Z,73.40
2018-09-26T01:25:49.523Z,74.82
2018-09-26T01:26:49.509Z,74.63
2018-09-26T01:27:49.496Z,75.30
2018-09-26T01:28:49.485Z,78.06
2018-09-26T01:29:49.467Z,78.63
2018-09-26T01:30:49.453Z,77.77
2018-09-26T01:31:49.440Z,75.02
2018-09-26T01:32:49.425Z,73.49
2018-09-26T01:33:49.411Z,73.30
2018-09-26T01:34:49.398Z,72.74
2018-09-26T01:35:49.384Z,73.02
2018-09-26T01:36:49.369Z,73.02
2018-09-26T01:37:49.355Z,73.11
2018-09-26T01:38:49.342Z,73.40
2018-09-26T01:39:49.328Z,73.02
2018-09-26T01:40:49.313Z,72.74
2018-09-26T01:41:49.299Z,73.11
2018-09-26T01:42:49.285Z,73.49
2018-09-26T01:43:49.273Z,73.11
2018-09-26T01:44:49.257Z,73.40
2018-09-26T01:45:49.245Z,73.49
2018-09-26T01:46:49.230Z,73.40
2018-09-26T01:47:49.216Z,73.88
2018-09-26T01:48:49.201Z,73.78
2018-09-26T01:49:49.187Z,74.16
2018-09-26T01:50:49.174Z,74.07
2018-09-26T01:51:49.159Z,74.07
2018-09-26T01:52:49.146Z,78.44
2018-09-26T01:53:49.134Z,79.39
2018-09-26T01:54:49.117Z,79.77
2018-09-26T01:55:49.104Z,78.44
2018-09-26T01:56:49.088Z,77.39
2018-09-26T01:57:49.076Z,78.82
2018-09-26T01:58:49.060Z,79.33
2018-09-26T01:59:49.047Z,80.47
2018-09-26T02:00:49.034Z,79.43
2018-09-26T02:01:49.019Z,75.24
2018-09-26T02:02:49.006Z,74.35
2018-09-26T02:03:48.992Z,75.81
2018-09-26T02:04:48.975Z,80.10
2018-09-26T02:05:48.963Z,77.62
2018-09-26T02:06:48.947Z,78.10
2018-09-26T02:07:48.936Z,75.62
2018-09-26T02:08:48.921Z,75.91
2018-09-26T02:09:48.907Z,78.00
2018-09-26T02:10:48.891Z,78.96
2018-09-26T02:11:48.879Z,78.38
2018-09-26T02:12:48.865Z,76.20
2018-09-26T02:13:48.850Z,79.43
2018-09-26T02:14:48.837Z,76.67
2018-09-26T02:15:48.825Z,75.53
2018-09-26T02:16:48.808Z,75.68
2018-09-26T02:17:48.796Z,77.97
2018-09-26T02:18:48.781Z,77.39
2018-09-26T02:19:48.767Z,77.58
2018-09-26T02:20:48.753Z,79.39
2018-09-26T02:21:48.741Z,77.20
2018-09-26T02:22:48.726Z,77.49
2018-09-26T02:23:48.773Z,78.16
2018-09-26T02:24:48.698Z,78.06
2018-09-26T02:25:48.685Z,78.91
2018-09-26T02:26:48.671Z,79.49
2018-09-26T02:27:48.658Z,80.05
2018-09-26T02:28:48.645Z,79.96
2018-09-26T02:29:48.629Z,83.76
2018-09-26T02:30:48.615Z,81.29
2018-09-26T02:31:48.629Z,84.05
2018-09-26T02:32:48.588Z,80.72
2018-09-26T02:33:48.573Z,80.24
2018-09-26T02:34:48.560Z,80.40
2018-09-26T02:35:48.548Z,79.44
2018-09-26T02:36:48.533Z,79.54
2018-09-26T02:37:48.518Z,81.25
2018-09-26T02:38:48.506Z,80.68
2018-09-26T02:39:48.491Z,79.83
2018-09-26T02:40:48.477Z,79.25
2018-09-26T02:41:48.463Z,80.40
2018-09-26T02:42:48.450Z,80.96
2018-09-26T02:43:48.436Z,80.02
2018-09-26T02:44:48.423Z,79.92
2018-09-26T02:45:48.410Z,81.63
2018-09-26T02:46:48.397Z,82.58
2018-09-26T02:47:48.380Z,83.06
2018-09-26T02:48:48.368Z,82.58
2018-09-26T02:49:48.358Z,82.20
2018-09-26T02:50:48.339Z,85.15
2018-09-26T02:51:48.324Z,84.58
2018-09-26T02:52:48.311Z,85.95
2018-09-26T02:53:48.296Z,85.19
2018-09-26T02:54:48.283Z,80.82
2018-09-26T02:55:48.329Z,79.68
2018-09-26T02:56:48.256Z,80.72
2018-09-26T02:57:48.242Z,80.82
2018-09-26T02:58:48.227Z,82.71
2018-09-26T02:59:48.213Z,84.33
2018-09-26T03:00:48.199Z,82.05
2018-09-26T03:01:48.186Z,81.10
2018-09-26T03:02:48.173Z,84.52
2018-09-26T03:03:48.158Z,84.14
2018-09-26T03:04:48.142Z,83.00
2018-09-26T03:05:48.131Z,80.44
2018-09-26T03:06:48.115Z,79.96
2018-09-26T03:07:48.103Z,81.25
2018-09-26T03:08:48.090Z,81.54
2018-09-26T03:09:48.074Z,82.49
2018-09-26T03:10:48.094Z,83.62
2018-09-26T03:11:48.048Z,84.77
2018-09-26T03:12:48.033Z,84.01
2018-09-26T03:13:48.019Z,82.87
2018-09-26T03:14:48.005Z,82.01
2018-09-26T03:15:47.992Z,82.77
2018-09-26T03:16:47.976Z,84.01
2018-09-26T03:17:48.063Z,82.68
2018-09-26T03:18:47.950Z,84.29
2018-09-26T03:19:47.937Z,84.10
2018-09-26T03:20:47.924Z,83.00
2018-09-26T03:21:47.907Z,82.15
2018-09-26T03:22:47.897Z,80.91
2018-09-26T03:23:47.882Z,81.01
2018-09-26T03:24:47.867Z,82.24
2018-09-26T03:25:47.853Z,80.34
2018-09-26T03:26:47.838Z,79.68
2018-09-26T03:27:47.826Z,78.06
2018-09-26T03:28:47.811Z,79.96
2018-09-26T03:29:47.796Z,78.53
2018-09-26T03:30:47.783Z,80.02
2018-09-26T03:31:47.769Z,78.63
2018-09-26T03:32:47.755Z,78.69
2018-09-26T03:33:47.820Z,78.97
2018-09-26T03:34:47.726Z,80.30
2018-09-26T03:35:47.712Z,79.44
2018-09-26T03:36:47.699Z,79.63
2018-09-26T03:37:47.685Z,80.02
2018-09-26T03:38:47.672Z,80.21
2018-09-26T03:39:47.656Z,81.92
2018-09-26T03:40:47.642Z,83.91
2018-09-26T03:41:47.630Z,83.15
2018-09-26T03:42:47.617Z,81.48
2018-09-26T03:43:47.803Z,81.96
2018-09-26T03:44:47.586Z,79.92
2018-09-26T03:45:47.572Z,79.92
2018-09-26T03:46:47.558Z,80.02
2018-09-26T03:47:47.545Z,80.49
2018-09-26T03:48:47.531Z,80.58
2018-09-26T03:49:47.521Z,79.92
2018-09-26T03:50:47.507Z,80.87
2018-09-26T03:51:47.489Z,82.01
2018-09-26T03:52:47.484Z,81.35
2018-09-26T03:53:47.463Z,81.63
2018-09-26T03:54:47.446Z,83.91
2018-09-26T03:55:47.433Z,84.86
2018-09-26T03:56:47.415Z,84.95
2018-09-26T03:57:47.403Z,83.53
2018-09-26T03:58:47.388Z,84.48
2018-09-26T03:59:47.376Z,83.34
2018-09-26T04:00:47.359Z,84.01
2018-09-26T04:01:47.345Z,82.87
2018-09-26T04:02:47.332Z,81.92
2018-09-26T04:03:47.321Z,83.91
2018-09-26T04:04:47.336Z,85.15
2018-09-26T04:05:47.288Z,83.62
2018-09-26T04:06:47.275Z,84.29
2018-09-26T04:07:47.260Z,82.20
2018-09-26T04:08:47.245Z,81.73
2018-09-26T04:09:47.231Z,81.73
2018-09-26T04:10:47.217Z,83.15
2018-09-26T04:11:47.203Z,82.68
2018-09-26T04:12:47.265Z,81.73
2018-09-26T04:13:47.174Z,82.49
2018-09-26T04:14:47.160Z,81.92
2018-09-26T04:15:47.209Z,82.29
2018-09-26T04:16:47.133Z,80.87
2018-09-26T04:17:47.118Z,81.06
2018-09-26T04:18:47.106Z,81.12
2018-09-26T04:19:47.091Z,81.87
2018-09-26T04:20:47.076Z,82.54
2018-09-26T04:21:47.064Z,82.35
2018-09-26T04:22:47.047Z,82.73
2018-09-26T04:23:47.034Z,83.30
2018-09-26T04:24:47.023Z,83.68
2018-09-26T04:25:47.008Z,85.49
2018-09-26T04:26:47.129Z,85.01
2018-09-26T04:27:47.049Z,84.25
2018-09-26T04:28:46.962Z,83.97
2018-09-26T04:29:46.947Z,86.24
2018-09-26T04:30:46.937Z,86.15
2018-09-26T04:31:46.919Z,85.86
2018-09-26T04:32:47.163Z,87.29
2018-09-26T04:33:46.898Z,86.82
2018-09-26T04:34:46.877Z,87.01
2018-09-26T04:35:46.863Z,85.86
2018-09-26T04:36:46.848Z,85.77
2018-09-26T04:37:46.834Z,85.77
2018-09-26T04:38:46.960Z,85.68
2018-09-26T04:39:46.806Z,85.16
2018-09-26T04:40:46.791Z,87.34
2018-09-26T04:41:46.779Z,87.15
2018-09-26T04:42:46.763Z,87.82
2018-09-26T04:43:46.750Z,88.29
2018-09-26T04:44:46.735Z,88.48
2018-09-26T04:45:46.720Z,88.86
2018-09-26T04:46:46.709Z,89.62
2018-09-26T04:47:46.694Z,89.72
2018-09-26T04:48:46.678Z,89.72
2018-09-26T04:49:46.664Z,90.00
2018-09-26T04:50:46.673Z,90.00
2018-09-26T04:51:46.636Z,90.66
2018-09-26T04:52:46.621Z,91.14
2018-09-26T04:53:46.607Z,92.28
2018-09-26T04:54:46.592Z,92.28
2018-09-26T04:55:46.579Z,92.94
2018-09-26T04:56:46.566Z,92.47
2018-09-26T04:57:46.582Z,93.32
2018-09-26T04:58:46.536Z,93.80
2018-09-26T04:59:46.522Z,94.18
2018-09-26T05:00:46.506Z,94.65
2018-09-26T05:01:46.495Z,95.12
2018-09-26T05:02:46.480Z,94.74
2018-09-26T05:03:46.466Z,94.65
2018-09-26T05:04:46.451Z,94.74
2018-09-26T05:05:46.436Z,96.08
2018-09-26T05:06:46.423Z,94.46
2018-09-26T05:07:46.408Z,93.70
2018-09-26T05:08:46.394Z,93.80
2018-09-26T05:09:46.380Z,94.37
2018-09-26T05:10:46.365Z,95.12
2018-09-26T05:11:46.352Z,95.12
2018-09-26T05:12:46.337Z,95.31
2018-09-26T05:13:46.323Z,95.51
2018-09-26T05:14:46.339Z,95.03
2018-09-26T05:15:46.293Z,96.08
2018-09-26T05:16:46.284Z,95.89
2018-09-26T05:17:46.266Z,95.31
2018-09-26T05:18:46.252Z,95.31
2018-09-26T05:19:46.238Z,95.70
2018-09-26T05:20:46.221Z,95.51
2018-09-26T05:21:46.211Z,96.17
2018-09-26T05:22:46.260Z,95.51
2018-09-26T05:23:46.181Z,96.08
2018-09-26T05:24:46.166Z,95.98
2018-09-26T05:25:46.151Z,96.74
2018-09-26T05:26:46.136Z,96.74
2018-09-26T05:27:46.124Z,97.02
2018-09-26T05:28:46.109Z,97.50
2018-09-26T05:29:46.093Z,96.93
2018-09-26T05:30:46.080Z,97.50
2018-09-26T05:31:46.066Z,96.83
2018-09-26T05:32:46.052Z,96.55
2018-09-26T05:33:46.039Z,97.50
2018-09-26T05:34:46.023Z,97.97
2018-09-26T05:35:46.009Z,97.31
2018-09-26T05:36:45.993Z,97.97
2018-09-26T05:37:45.980Z,97.69
2018-09-26T05:38:45.965Z,96.08
2018-09-26T05:39:45.951Z,95.98
2018-09-26T05:40:45.935Z,97.27
2018-09-26T05:41:45.949Z,94.23
2018-09-26T05:42:45.910Z,91.75
2018-09-26T05:43:45.894Z,93.84
2018-09-26T05:44:45.878Z,93.46
2018-09-26T05:45:45.865Z,91.09
2018-09-26T05:46:45.850Z,90.90
2018-09-26T05:47:45.836Z,89.57
2018-09-26T05:48:45.821Z,89.19
2018-09-26T05:49:45.807Z,88.15
2018-09-26T05:50:45.792Z,88.34
2018-09-26T05:51:45.778Z,88.90
2018-09-26T05:52:45.763Z,89.86
2018-09-26T05:53:45.749Z,88.90
2018-09-26T05:54:45.734Z,89.28
2018-09-26T05:55:45.721Z,89.28
2018-09-26T05:56:45.708Z,89.76
2018-09-26T05:57:45.691Z,89.95
2018-09-26T05:58:45.677Z,90.14
2018-09-26T05:59:45.754Z,89.86
2018-09-26T06:00:45.648Z,90.33
2018-09-26T06:01:45.635Z,91.24
2018-09-26T06:02:45.624Z,90.95
2018-09-26T06:03:45.607Z,91.04
2018-09-26T06:04:45.591Z,91.04
2018-09-26T06:05:45.578Z,91.71
2018-09-26T06:06:45.564Z,90.66
2018-09-26T06:07:45.549Z,90.57
2018-09-26T06:08:45.534Z,92.13
2018-09-26T06:09:45.521Z,90.80
2018-09-26T06:10:45.507Z,91.28
2018-09-26T06:11:45.493Z,89.86
2018-09-26T06:12:45.505Z,89.19
2018-09-26T06:13:45.464Z,89.72
2018-09-26T06:14:45.450Z,88.90
2018-09-26T06:15:45.436Z,89.05
2018-09-26T06:16:45.420Z,89.81
2018-09-26T06:17:45.406Z,90.66
2018-09-26T06:18:45.395Z,90.95
2018-09-26T06:19:45.377Z,91.14
2018-09-26T06:20:45.363Z,91.99
2018-09-26T06:21:45.349Z,92.09
2018-09-26T06:22:45.334Z,91.71
2018-09-26T06:23:45.320Z,91.89
2018-09-26T06:24:45.382Z,90.66
2018-09-26T06:25:45.294Z,90.57
2018-09-26T06:26:45.280Z,90.80
2018-09-26T06:27:45.264Z,90.52
2018-09-26T06:28:45.249Z,91.09
2018-09-26T06:29:45.236Z,92.42
2018-09-26T06:30:45.220Z,93.56
2018-09-26T06:31:45.208Z,91.42
2018-09-26T06:32:45.196Z,90.14
2018-09-26T06:33:45.179Z,90.56
2018-09-26T06:34:45.165Z,89.52
2018-09-26T06:35:45.151Z,91.42
2018-09-26T06:36:45.137Z,92.03
2018-09-26T06:37:45.123Z,91.85
2018-09-26T06:38:45.109Z,90.61
2018-09-26T06:39:45.095Z,86.24
2018-09-26T06:40:45.081Z,85.28
2018-09-26T06:41:45.070Z,85.19
2018-09-26T06:42:45.053Z,84.43
2018-09-26T06:43:45.040Z,83.23
2018-09-26T06:44:45.026Z,83.90
2018-09-26T06:45:45.012Z,84.85
2018-09-26T06:46:44.999Z,83.04
2018-09-26T06:47:44.985Z,82.57
2018-09-26T06:48:44.972Z,83.33
2018-09-26T06:49:44.958Z,82.00
2018-09-26T06:50:44.946Z,85.04
2018-09-26T06:51:44.932Z,83.37
2018-09-26T06:52:44.918Z,82.80
2018-09-26T06:53:44.905Z,83.47
2018-09-26T06:54:44.892Z,80.04
2018-09-26T06:55:44.879Z,78.80
2018-09-26T06:56:44.864Z,77.47
2018-09-26T06:57:44.854Z,77.13
2018-09-26T06:58:44.841Z,77.98
2018-09-26T06:59:44.830Z,77.22
2018-09-26T07:00:44.814Z,76.65
2018-09-26T07:01:44.802Z,78.08
2018-09-26T07:02:44.793Z,78.17
2018-09-26T07:03:44.776Z,78.65
2018-09-26T07:04:44.762Z,78.08
2018-09-26T07:05:44.750Z,77.22
2018-09-26T07:06:44.741Z,78.94
2018-09-26T07:07:44.724Z,80.22
2018-09-26T07:08:44.710Z,78.03
2018-09-26T07:09:44.698Z,77.36
2018-09-26T07:10:44.686Z,75.74
2018-09-26T07:11:44.673Z,76.69
2018-09-26T07:12:44.660Z,74.40
2018-09-26T07:13:44.647Z,74.69
2018-09-26T07:14:44.635Z,79.46
2018-09-26T07:15:44.622Z,76.64
2018-09-26T07:16:44.611Z,74.92
2018-09-26T07:17:44.597Z,76.82
2018-09-26T07:18:44.585Z,74.92
2018-09-26T07:19:44.572Z,73.77
2018-09-26T07:20:44.561Z,75.20
2018-09-26T07:21:44.547Z,71.96
2018-09-26T07:22:44.535Z,70.25
2018-09-26T07:23:44.523Z,70.06
2018-09-26T07:24:44.510Z,69.58
2018-09-26T07:25:44.498Z,69.39
2018-09-26T07:26:44.486Z,68.82
2018-09-26T07:27:44.474Z,70.34
2018-09-26T07:28:44.462Z,69.48
2018-09-26T07:29:44.449Z,70.15
2018-09-26T07:30:44.437Z,71.01
2018-09-26T07:31:44.428Z,70.92
2018-09-26T07:32:44.413Z,69.23
2018-09-26T07:33:44.402Z,69.20
2018-09-26T07:34:44.390Z,67.42
2018-09-26T07:35:44.376Z,68.53
2018-09-26T07:36:44.365Z,68.76
2018-09-26T07:37:44.352Z,68.53
2018-09-26T07:38:44.342Z,67.14
2018-09-26T07:39:44.330Z,67.14
2018-09-26T07:40:44.316Z,68.66
2018-09-26T07:41:44.306Z,68.57
2018-09-26T07:42:44.296Z,68.18
2018-09-26T07:43:44.283Z,67.86
2018-09-26T07:44:44.270Z,67.58
2018-09-26T07:45:44.309Z,68.24
2018-09-26T07:46:44.250Z,68.63
2018-09-26T07:47:44.238Z,72.19
2018-09-26T07:48:44.224Z,73.91
2018-09-26T07:49:44.215Z,71.72
2018-09-26T07:50:44.200Z,70.95
2018-09-26T07:51:44.190Z,71.33
2018-09-26T07:52:44.178Z,70.19
2018-09-26T07:53:44.165Z,70.19
2018-09-26T07:54:44.154Z,70.38
2018-09-26T07:55:44.144Z,70.76
2018-09-26T07:56:44.131Z,70.42
2018-09-26T07:57:44.119Z,69.17
2018-09-26T07:58:44.109Z,69.37
2018-09-26T07:59:44.097Z,70.22
2018-09-26T08:00:44.085Z,68.79
2018-09-26T08:01:44.074Z,67.83
2018-09-26T08:02:44.063Z,68.79
2018-09-26T08:03:44.054Z,68.70
2018-09-26T08:04:44.041Z,68.70
2018-09-26T08:05:44.030Z,68.03
2018-09-26T08:06:44.018Z,69.37
2018-09-26T08:07:44.008Z,68.51
2018-09-26T08:08:43.996Z,68.26
2018-09-26T08:09:43.984Z,68.54
2018-09-26T08:10:43.975Z,68.06
2018-09-26T08:11:44.009Z,67.11
2018-09-26T08:12:43.948Z,67.77
2018-09-26T08:13:43.942Z,69.02
2018-09-26T08:14:43.927Z,68.26
2018-09-26T08:15:43.915Z,68.63
2018-09-26T08:16:43.905Z,67.87
2018-09-26T08:17:43.894Z,69.05
2018-09-26T08:18:43.984Z,68.29
2018-09-26T08:19:43.876Z,68.76
2018-09-26T08:20:43.861Z,67.05
2018-09-26T08:21:43.849Z,65.33
2018-09-26T08:22:43.839Z,67.33
2018-09-26T08:23:43.906Z,66.28
2018-09-26T08:24:43.817Z,66.89
2018-09-26T08:25:43.807Z,65.07
2018-09-26T08:26:43.798Z,66.47
2018-09-26T08:27:43.786Z,64.12
2018-09-26T08:28:43.774Z,63.16
2018-09-26T08:29:43.789Z,65.17
2018-09-26T08:30:43.754Z,66.79
2018-09-26T08:31:43.743Z,65.36
2018-09-26T08:32:43.732Z,63.83
2018-09-26T08:33:43.722Z,63.99
2018-09-26T08:34:43.720Z,63.13
2018-09-26T08:35:43.701Z,64.09
2018-09-26T08:36:43.689Z,66.85
2018-09-26T08:37:43.679Z,67.55
2018-09-26T08:38:43.669Z,68.23
2018-09-26T08:39:43.659Z,65.17
2018-09-26T08:40:43.647Z,66.19
2018-09-26T08:41:43.638Z,66.03
2018-09-26T08:42:43.627Z,66.41
2018-09-26T08:43:43.673Z,66.70
2018-09-26T08:44:43.605Z,66.41
2018-09-26T08:45:43.597Z,64.50
2018-09-26T08:46:43.587Z,64.78
2018-09-26T08:47:43.575Z,64.50
2018-09-26T08:48:43.564Z,65.55
2018-09-26T08:49:43.555Z,65.39
2018-09-26T08:50:43.546Z,64.62
2018-09-26T08:51:43.536Z,64.72
2018-09-26T08:52:43.525Z,64.62
2018-09-26T08:53:43.537Z,63.39
2018-09-26T08:54:43.509Z,64.05
2018-09-26T08:55:43.494Z,64.82
2018-09-26T08:56:43.483Z,63.48
2018-09-26T08:57:43.474Z,63.67
2018-09-26T08:58:43.465Z,63.67
2018-09-26T08:59:43.512Z,64.43
2018-09-26T09:00:43.444Z,63.96
2018-09-26T09:01:43.435Z,63.67
2018-09-26T09:02:43.425Z,63.29
2018-09-26T09:03:43.422Z,63.48
2018-09-26T09:04:43.404Z,64.62
2018-09-26T09:05:43.396Z,64.47
2018-09-26T09:06:43.387Z,63.80
2018-09-26T09:07:43.376Z,62.84
2018-09-26T09:08:43.366Z,64.28
2018-09-26T09:09:43.360Z,63.60
2018-09-26T09:10:43.348Z,62.94
2018-09-26T09:11:43.444Z,61.69
2018-09-26T09:12:43.342Z,61.31
2018-09-26T09:13:43.318Z,61.51
2018-09-26T09:14:43.527Z,61.69
2018-09-26T09:15:43.300Z,61.98
2018-09-26T09:16:43.290Z,61.98
2018-09-26T09:17:43.332Z,61.57
2018-09-26T09:18:43.271Z,62.71
2018-09-26T09:19:43.262Z,64.25
2018-09-26T09:20:43.250Z,63.23
2018-09-26T09:21:43.243Z,63.13
2018-09-26T09:22:43.232Z,63.32
2018-09-26T09:23:43.224Z,64.09
2018-09-26T09:24:43.213Z,63.23
2018-09-26T09:25:43.205Z,63.99
2018-09-26T09:26:43.195Z,63.89
2018-09-26T09:27:43.284Z,62.87
2018-09-26T09:28:43.176Z,62.87
2018-09-26T09:29:43.167Z,61.82
2018-09-26T09:30:43.157Z,61.54
2018-09-26T09:31:43.148Z,61.79
2018-09-26T09:32:43.141Z,61.69
2018-09-26T09:33:43.129Z,62.94
2018-09-26T09:34:43.119Z,64.12
2018-09-26T09:35:43.111Z,62.77
2018-09-26T09:36:43.100Z,62.77
2018-09-26T09:37:43.091Z,62.77
2018-09-26T09:38:43.082Z,62.49
2018-09-26T09:39:43.074Z,62.77
2018-09-26T09:40:43.063Z,62.87
2018-09-26T09:41:43.054Z,61.91
2018-09-26T09:42:43.045Z,62.30
2018-09-26T09:43:43.037Z,61.91
2018-09-26T09:44:43.027Z,62.01
2018-09-26T09:45:43.018Z,61.54
2018-09-26T09:46:43.010Z,61.85
2018-09-26T09:47:43.001Z,62.62
2018-09-26T09:48:42.991Z,62.14
2018-09-26T09:49:42.981Z,62.01
2018-09-26T09:50:42.973Z,61.57
2018-09-26T09:51:42.995Z,62.81
2018-09-26T09:52:42.954Z,61.85
2018-09-26T09:53:42.948Z,61.18
2018-09-26T09:54:42.937Z,61.47
2018-09-26T09:55:42.929Z,61.76
2018-09-26T09:56:42.918Z,61.94
2018-09-26T09:57:42.910Z,61.85
2018-09-26T09:58:42.901Z,61.37
2018-09-26T09:59:42.893Z,62.84
2018-09-26T10:00:42.888Z,62.84
2018-09-26T10:01:42.875Z,61.79
2018-09-26T10:02:42.907Z,63.22
2018-09-26T10:03:42.863Z,62.07
2018-09-26T10:04:42.848Z,61.79
2018-09-26T10:05:42.840Z,61.60
2018-09-26T10:06:42.832Z,61.69
2018-09-26T10:07:42.824Z,60.35
2018-09-26T10:08:42.877Z,61.40
2018-09-26T10:09:42.806Z,61.40
2018-09-26T10:10:42.798Z,61.05
2018-09-26T10:11:42.790Z,61.24
2018-09-26T10:12:42.779Z,61.82
2018-09-26T10:13:42.771Z,60.00
2018-09-26T10:14:42.764Z,61.82
2018-09-26T10:15:42.757Z,61.34
2018-09-26T10:16:42.746Z,59.52
2018-09-26T10:17:42.814Z,60.28
2018-09-26T10:18:42.734Z,59.80
2018-09-26T10:19:42.723Z,60.38
2018-09-26T10:20:42.715Z,59.55
2018-09-26T10:21:42.706Z,58.56
2018-09-26T10:22:42.698Z,59.16
2018-09-26T10:23:42.691Z,59.06
2018-09-26T10:24:42.681Z,58.37
2018-09-26T10:25:42.674Z,58.39
2018-09-26T10:26:42.666Z,59.74
2018-09-26T10:27:42.658Z,59.36
2018-09-26T10:28:42.649Z,59.06
2018-09-26T10:29:42.641Z,59.83
2018-09-26T10:30:42.634Z,59.36
2018-09-26T10:31:42.626Z,58.69
2018-09-26T10:32:42.617Z,58.52
2018-09-26T10:33:42.609Z,57.95
2018-09-26T10:34:42.652Z,57.75
2018-09-26T10:35:42.594Z,57.95
2018-09-26T10:36:42.586Z,57.65
2018-09-26T10:37:42.579Z,56.70
2018-09-26T10:38:42.571Z,57.65
2018-09-26T10:39:42.564Z,57.56
2018-09-26T10:40:42.590Z,57.85
2018-09-26T10:41:42.548Z,58.71
2018-09-26T10:42:42.541Z,58.04
2018-09-26T10:43:42.532Z,57.95
2018-09-26T10:44:42.525Z,58.91
2018-09-26T10:45:42.516Z,59.00
2018-09-26T10:46:42.607Z,57.85
2018-09-26T10:47:42.503Z,58.52
2018-09-26T10:48:42.496Z,57.85
2018-09-26T10:49:42.487Z,58.71
2018-09-26T10:50:42.479Z,59.67
2018-09-26T10:51:42.472Z,57.95
2018-09-26T10:52:42.464Z,58.04
2018-09-26T10:53:42.456Z,58.23
2018-09-26T10:54:42.450Z,57.65
2018-09-26T10:55:42.442Z,57.75
2018-09-26T10:56:42.500Z,57.95
2018-09-26T10:57:42.428Z,57.85
2018-09-26T10:58:42.420Z,57.08
2018-09-26T10:59:42.414Z,57.18
2018-09-26T11:00:42.405Z,56.70
2018-09-26T11:01:42.398Z,57.88
2018-09-26T11:02:42.499Z,58.64
2018-09-26T11:03:42.383Z,58.17
2018-09-26T11:04:42.375Z,59.22
2018-09-26T11:05:42.368Z,58.26
2018-09-26T11:06:42.362Z,57.21
2018-09-26T11:07:42.354Z,58.17
2018-09-26T11:08:42.346Z,57.88
2018-09-26T11:09:42.339Z,57.88
2018-09-26T11:10:42.336Z,56.73
2018-09-26T11:11:42.325Z,57.21
2018-09-26T11:12:42.390Z,57.59
2018-09-26T11:13:42.311Z,58.26
2018-09-26T11:14:42.303Z,58.17
2018-09-26T11:15:42.296Z,56.63
2018-09-26T11:16:42.288Z,55.96
2018-09-26T11:17:42.281Z,56.46
2018-09-26T11:18:42.301Z,57.01
2018-09-26T11:19:42.268Z,57.04
2018-09-26T11:20:42.264Z,57.23
2018-09-26T11:21:42.253Z,57.04
2018-09-26T11:22:42.247Z,55.60
2018-09-26T11:23:42.240Z,57.04
2018-09-26T11:24:42.231Z,56.56
2018-09-26T11:25:42.234Z,56.66
2018-09-26T11:26:42.280Z,57.26
2018-09-26T11:27:42.212Z,55.24
2018-09-26T11:28:42.205Z,55.34
2018-09-26T11:29:42.199Z,55.44
2018-09-26T11:30:42.192Z,55.44
2018-09-26T11:31:42.185Z,54.86
2018-09-26T11:32:42.177Z,55.05
2018-09-26T11:33:42.250Z,55.73
2018-09-26T11:34:42.165Z,56.21
2018-09-26T11:35:42.258Z,55.91
2018-09-26T11:36:42.151Z,55.53
2018-09-26T11:37:42.146Z,55.24
2018-09-26T11:38:42.138Z,56.68
2018-09-26T11:39:42.132Z,56.21
2018-09-26T11:40:42.124Z,55.44
2018-09-26T11:41:42.117Z,55.18
2018-09-26T11:42:42.111Z,54.69
2018-09-26T11:43:42.105Z,54.69
2018-09-26T11:44:42.174Z,54.89
2018-09-26T11:45:42.091Z,55.66
2018-09-26T11:46:42.085Z,56.23
2018-09-26T11:47:42.082Z,55.66
2018-09-26T11:48:42.072Z,55.27
2018-09-26T11:49:42.066Z,54.99
2018-09-26T11:50:42.060Z,55.18
2018-09-26T11:51:42.056Z,54.79
2018-09-26T11:52:42.046Z,54.02
2018-09-26T11:53:42.040Z,52.87
2018-09-26T11:54:42.134Z,53.92
2018-09-26T11:55:42.028Z,54.99
2018-09-26T11:56:42.021Z,55.46
2018-09-26T11:57:42.015Z,55.37
2018-09-26T11:58:42.011Z,56.14
2018-09-26T11:59:42.003Z,55.85
2018-09-26T12:00:41.995Z,54.89
2018-09-26T12:01:41.990Z,55.66
2018-09-26T12:02:42.081Z,55.56
2018-09-26T12:03:41.978Z,54.50
2018-09-26T12:04:41.970Z,54.22
2018-09-26T12:05:41.965Z,52.97
2018-09-26T12:06:41.959Z,52.39
2018-09-26T12:07:41.953Z,53.16
2018-09-26T12:08:41.946Z,53.45
2018-09-26T12:09:41.940Z,54.22
2018-09-26T12:10:41.933Z,53.92
2018-09-26T12:11:41.928Z,54.12
2018-09-26T12:12:41.922Z,54.31
2018-09-26T12:13:41.940Z,55.76
2018-09-26T12:14:41.909Z,55.56
2018-09-26T12:15:41.903Z,54.60
2018-09-26T12:16:41.896Z,55.59
2018-09-26T12:17:41.889Z,55.40
2018-09-26T12:18:41.885Z,55.11
2018-09-26T12:19:41.878Z,54.91
2018-09-26T12:20:41.871Z,54.05
2018-09-26T12:21:41.908Z,53.96
2018-09-26T12:22:41.952Z,53.09
2018-09-26T12:23:41.853Z,53.09
2018-09-26T12:24:41.848Z,53.09
2018-09-26T12:25:41.847Z,53.86
2018-09-26T12:26:41.840Z,52.99
2018-09-26T12:27:41.850Z,53.19
2018-09-26T12:28:41.823Z,52.70
2018-09-26T12:29:41.822Z,53.19
2018-09-26T12:30:41.811Z,54.91
2018-09-26T12:31:41.805Z,54.65
2018-09-26T12:32:41.799Z,53.11
2018-09-26T12:33:41.794Z,53.09
2018-09-26T12:34:41.790Z,54.08
2018-09-26T12:35:41.783Z,53.98
2018-09-26T12:36:41.781Z,54.08
2018-09-26T12:37:41.771Z,53.98
2018-09-26T12:38:41.764Z,53.59
2018-09-26T12:39:41.758Z,54.56
2018-09-26T12:40:41.752Z,54.17
2018-09-26T12:41:41.746Z,53.31
2018-09-26T12:42:41.787Z,53.50
2018-09-26T12:43:41.735Z,54.17
2018-09-26T12:44:41.733Z,54.08
2018-09-26T12:45:41.722Z,53.59
2018-09-26T12:46:41.718Z,52.63
2018-09-26T12:47:41.712Z,52.92
2018-09-26T12:48:41.711Z,52.25
2018-09-26T12:49:41.701Z,52.54
2018-09-26T12:50:41.695Z,51.67
2018-09-26T12:51:41.689Z,51.86
2018-09-26T12:52:41.683Z,52.44